Thursday, November 23, 2017, 6:31 PM GMT
Back to Local

CYBC, Baie Comeau, Que.

Location: , , Canada Lat: 49.133
Local Time: 6:31 PM GMT (18:31 GMT) Lon: -68.2
Time Zone: GMT Elev: 68 ft

Show me the last for .
Show Decoded

2017-11-23 18:00 METAR CYBC 231800Z AUTO 28010G21KT 9SM BKN034 M04/M11 A2978 RMK SLP089 =
2017-11-23 17:00 METAR CYBC 231700Z AUTO 29010G15KT 9SM OVC036 M03/M10 A2978 RMK SLP087 =
2017-11-23 16:00 METAR CYBC 231600Z AUTO 31009G17KT 9SM BKN034 M04/M11 A2980 RMK SLP093 =
2017-11-23 15:00 METAR CYBC 231500Z AUTO 29013G20KT 9SM BKN032 M05/M11 A2982 RMK SLP100 =
2017-11-23 14:00 METAR CYBC 231400Z AUTO 29009G17KT 9SM SCT030 M06/M10 A2982 RMK SLP101 =
2017-11-23 13:00 METAR CYBC 231300Z AUTO 29011G20KT 260V330 9SM FEW025 M07/M11 A2981 RMK SLP096 =
2017-11-23 12:46 METAR CYBC 231246Z AUTO 29011G18KT 9SM SCT023 M07/M11 A2980 RMK SLP095 =
2017-11-23 12:00 METAR CYBC 231200Z AUTO 30011G20KT 9SM BKN023 M07/M10 A2979 RMK SLP090 =
2017-11-23 11:25 METAR CYBC 231125Z AUTO 30009G19KT 9SM BKN023 M07/M10 A2978 RMK SLP089 =
2017-11-23 11:00 METAR CYBC 231100Z AUTO 31012G17KT 9SM CLR M07/M09 A2978 RMK SLP087 =
2017-11-23 10:00 METAR CYBC 231000Z AUTO 32011G21KT 9SM CLR M06/M08 A2977 RMK SLP083 =
2017-11-23 09:00 METAR CYBC 230900Z AUTO 31010G19KT 9SM CLR M05/M08 A2977 RMK SLP085 =
2017-11-23 08:00 METAR CYBC 230800Z AUTO 30009KT 260V340 9SM OVC060 M04/M07 A2978 RMK SLP089 =
2017-11-23 07:39 METAR CYBC 230739Z AUTO 32008KT 9SM SCT020 OVC065 M04/M07 A2979 RMK PRESFR
                 SLP091 =
2017-11-23 07:16 METAR CYBC 230716Z AUTO 28005KT 9SM BKN020 OVC065 M04/M06 A2981 RMK SLP096 =
2017-11-23 07:00 METAR CYBC 230700Z AUTO 28005KT 9SM FEW018 OVC065 M04/M06 A2981 RMK SLP097 =
2017-11-23 06:00 METAR CYBC 230600Z AUTO 29007KT 9SM OVC065 M03/M05 A2980 RMK SLP095 =
2017-11-23 05:00 METAR CYBC 230500Z AUTO 32007KT 290V010 9SM OVC060 M02/M04 A2981 RMK SLP097 =
2017-11-23 04:00 METAR CYBC 230400Z AUTO 33008G15KT 9SM BKN050 OVC065 M02/M03 A2983 RMK SLP105 =
2017-11-23 03:00 METAR CYBC 230300Z AUTO 32008KT 9SM FEW049 OVC065 M01/M03 A2983 RMK PRESFR
                 SLP105 =
2017-11-23 02:00 METAR CYBC 230200Z AUTO 31006KT 9SM OVC070 M00/M01 A2986 RMK SLP113 =
2017-11-23 01:00 METAR CYBC 230100Z AUTO 30003KT 9SM FEW015 BKN038 BKN070 OVC150 00/M00 A2987 RMK
                 SLP118 =
2017-11-23 00:00 METAR CYBC 230000Z AUTO 32003KT 9SM SCT027 BKN060 BKN220 00/M00 A2988 RMK SLP121
                 =
2017-11-22 23:52 METAR CYBC 222352Z AUTO 32005KT 9SM SCT027 SCT046 BKN060 BKN220 00/00 A2988 RMK
                 SLP121 =
2017-11-22 23:40 METAR CYBC 222340Z AUTO 33003KT 290V350 9SM -RA BKN029 OVC046 00/00 A2988 RMK
                 SLP120 =
2017-11-22 23:34 METAR CYBC 222334Z AUTO 33003KT 9SM -RA -UP FEW024 BKN033 BKN046 OVC060 00/00
                 A2988 RMK SLP120 =
2017-11-22 23:30 METAR CYBC 222330Z AUTO 33003KT 6SM -SN -UP FEW024 BKN033 BKN046 OVC060 00/00
                 A2988 RMK SLP121 =
2017-11-22 23:28 METAR CYBC 222328Z AUTO 31003KT 5SM -SN -UP FEW024 BKN033 OVC046 00/M00 A2988
                 RMK SLP122 =
2017-11-22 23:16 METAR CYBC 222316Z AUTO 30002KT 4SM -SN FEW018 SCT024 OVC033 00/M00 A2989 RMK
                 SLP124 =
2017-11-22 23:10 METAR CYBC 222310Z AUTO 30002KT 4SM -SN SCT018 BKN024 OVC033 00/M00 A2989 RMK
                 SLP124 =
2017-11-22 23:00 METAR CYBC 222300Z AUTO 30003KT 3SM -SN SCT018 BKN033 OVC050 00/M00 A2989 RMK
                 SLP124 =
2017-11-22 22:58 METAR CYBC 222258Z AUTO 29003KT 3SM -SN BKN018 BKN033 OVC050 00/M00 A2989 RMK
                 SLP125 =
2017-11-22 22:54 METAR CYBC 222254Z AUTO 29003KT 3SM -RASN FEW012 BKN018 BKN033 OVC048 00/M00
                 A2989 RMK SLP125 =
2017-11-22 22:52 METAR CYBC 222252Z AUTO 29003KT 270V330 4SM -RASN FEW012 SCT018 BKN033 OVC048
                 00/M00 A2989 RMK SLP125 =
2017-11-22 22:44 METAR CYBC 222244Z AUTO 31002KT 5SM -RA BR SCT009 SCT015 BKN035 OVC050 00/M00
                 A2989 RMK SLP125 =
2017-11-22 22:37 METAR CYBC 222237Z AUTO 32002KT 9SM -RA SCT009 OVC048 00/M00 A2989 RMK SLP126 =
2017-11-22 22:36 METAR CYBC 222236Z AUTO 32002KT 9SM -RA SCT009 BKN013 OVC048 00/M00 A2989 RMK
                 SLP126 =
2017-11-22 22:34 METAR CYBC 222234Z AUTO 33002KT 8SM -RA BKN009 BKN013 OVC048 00/M00 A2989 RMK
                 SLP126 =
2017-11-22 22:31 METAR CYBC 222231Z AUTO 32002KT 6SM -RA -UP BR BKN009 BKN013 OVC046 00/M00 A2990
                 RMK SLP127 =
2017-11-22 22:28 METAR CYBC 222228Z AUTO 32002KT 4SM -RA -UP BR BKN007 OVC044 00/M00 A2989 RMK
                 SLP126 =
2017-11-22 22:22 METAR CYBC 222222Z AUTO 32003KT 3SM -SN -UP OVC007 00/M00 A2989 RMK SLP126 =
2017-11-22 22:19 METAR CYBC 222219Z AUTO 32003KT 3SM -SN OVC007 00/M00 A2990 RMK SLP127 =
2017-11-22 22:10 METAR CYBC 222210Z AUTO 32002KT 3SM -SN -UP OVC007 00/M00 A2990 RMK SLP127 =
2017-11-22 22:04 METAR CYBC 222204Z AUTO 34002KT 2 1/2SM -SN OVC007 00/M00 A2989 RMK SLP126 =
2017-11-22 22:00 METAR CYBC 222200Z AUTO 34002KT 2SM -SN OVC005 00/M00 A2989 RMK VIS VRB 1 3/4-2
                 1/2 SLP126 =
2017-11-22 21:47 METAR CYBC 222147Z AUTO 36003KT 2 1/2SM -SN OVC005 00/M00 A2988 RMK VIS VRB 1
                 3/4-3 ICG PAST HR SLP122 =
2017-11-22 21:42 METAR CYBC 222142Z AUTO VRB02KT 3SM -SN OVC005 00/M00 A2989 RMK ICG PAST HR
                 SLP124 =
2017-11-22 21:36 METAR CYBC 222136Z AUTO 02002KT 4SM -RASN OVC005 00/M00 A2989 RMK ICG PAST HR
                 SLP125 =
2017-11-22 21:32 METAR CYBC 222132Z AUTO 01003KT 4SM -RA BR OVC005 00/M00 A2989 RMK ICG PAST HR
                 SLP124 =
2017-11-22 21:26 METAR CYBC 222126Z AUTO 01003KT 4SM -RA -UP BR OVC005 00/M00 A2989 RMK ICG PAST
                 HR SLP123 =
2017-11-22 21:25 METAR CYBC 222125Z AUTO 01002KT 4SM -UP BR OVC005 00/M00 A2989 RMK ICG PAST HR
                 SLP123 =
2017-11-22 21:20 METAR CYBC 222120Z AUTO 02003KT 3SM -SN -UP OVC005 00/M00 A2989 RMK ICG PAST HR
                 SLP125
2017-11-22 21:19 METAR CYBC 222119Z AUTO 02003KT 2 1/2SM -SN -UP OVC005 00/M00 A2989 RMK ICG PAST
                 HR SLP124 =
2017-11-22 21:15 METAR CYBC 222115Z AUTO 02003KT 2 1/4SM -SN OVC005 00/M00 A2989 RMK ICG PAST HR
                 SLP124 =
2017-11-22 21:08 METAR CYBC 222108Z AUTO 02003KT 2SM -SN OVC005 00/M00 A2989 RMK ICG INTMT SLP124
                 =
2017-11-22 21:00 METAR CYBC 222100Z AUTO 03003KT 1 1/4SM -SN OVC003 00/M00 A2989 RMK ICG SLP125 =
2017-11-22 20:38 METAR CYBC 222038Z AUTO 02003KT 1 1/4SM -SN OVC003 00/M00 A2989 RMK ICG SLP126 =
2017-11-22 20:00 METAR CYBC 222000Z AUTO 07004KT 1 1/4SM -SN OVC003 00/M00 A2990 RMK SLP128 =
2017-11-22 19:00 METAR CYBC 221900Z AUTO 09006KT 1 3/4SM -SN OVC003 00/M00 A2989 RMK SLP124 =
2017-11-22 18:57 METAR CYBC 221857Z AUTO 10006KT 1 3/4SM -SN OVC003 00/M00 A2989 RMK TS/LTNG
                 TEMPO UNAVBL SLP124 =
2017-11-22 18:37 METAR CYBC 221837Z AUTO 08007KT 2SM -SN OVC003 00/M00 A2988 RMK VIS VRB 1 1/2-2
                 1/2 SLP122 =

Support USWX by starting your Amazon purchase here.